createdAt,value
2022-10-17T00:00:22.768Z,7.13
2022-10-17T00:01:31.978Z,7.11
2022-10-17T00:03:55.603Z,7.20
2022-10-17T00:06:22.087Z,7.23
2022-10-17T00:08:48.005Z,7.28
2022-10-17T00:11:23.344Z,7.17
2022-10-17T00:13:52.023Z,7.02
2022-10-17T00:15:05.659Z,6.90
2022-10-17T00:16:24.097Z,6.84
2022-10-17T00:18:50.013Z,6.85
2022-10-17T00:21:18.007Z,6.78
2022-10-17T00:23:43.484Z,6.75
2022-10-17T00:26:09.778Z,6.75
2022-10-17T00:27:20.381Z,6.73
2022-10-17T00:28:30.011Z,6.80
2022-10-17T00:32:13.420Z,7.00
2022-10-17T00:34:39.155Z,6.94
2022-10-17T00:35:48.344Z,6.88
2022-10-17T00:36:58.320Z,6.83
2022-10-17T00:38:07.506Z,6.72
2022-10-17T00:39:18.002Z,6.63
2022-10-17T00:40:28.236Z,6.64
2022-10-17T00:42:53.578Z,6.79
2022-10-17T00:45:30.393Z,6.82
2022-10-17T00:48:03.310Z,6.84
2022-10-17T00:49:12.474Z,6.67
2022-10-17T00:51:55.647Z,6.75
2022-10-17T00:54:28.537Z,6.71
2022-10-17T00:57:07.313Z,6.61
2022-10-17T00:58:18.556Z,6.50
2022-10-17T01:01:08.216Z,6.43
2022-10-17T01:02:20.864Z,6.31
2022-10-17T01:03:30.083Z,6.28
2022-10-17T01:05:59.108Z,6.29
2022-10-17T01:07:09.461Z,6.21
2022-10-17T01:08:18.384Z,6.25
2022-10-17T01:10:49.686Z,6.42
2022-10-17T01:12:21.785Z,6.26
2022-10-17T01:15:29.335Z,6.26
2022-10-17T01:20:06.271Z,6.20
2022-10-17T01:22:43.452Z,6.19
2022-10-17T01:25:49.578Z,6.19
2022-10-17T01:30:33.937Z,6.37
2022-10-17T01:33:46.295Z,6.37
2022-10-17T01:35:02.488Z,6.31
2022-10-17T01:36:23.673Z,6.37
2022-10-17T01:40:28.269Z,6.59
2022-10-17T01:43:17.615Z,6.68
2022-10-17T01:45:59.468Z,6.80
2022-10-17T01:48:34.330Z,6.85
2022-10-17T01:49:48.846Z,6.80
2022-10-17T01:51:02.593Z,6.81
2022-10-17T01:53:36.038Z,6.93
2022-10-17T01:56:08.930Z,6.95
2022-10-17T01:57:33.598Z,6.83
2022-10-17T02:00:08.834Z,6.92
2022-10-17T02:02:37.127Z,6.92
2022-10-17T02:03:49.470Z,6.76
2022-10-17T02:04:58.881Z,6.68
2022-10-17T02:06:08.731Z,6.65
2022-10-17T02:07:18.569Z,6.70
2022-10-17T02:08:42.884Z,6.76
2022-10-17T02:11:17.130Z,6.91
2022-10-17T02:14:08.081Z,6.89
2022-10-17T02:21:40.440Z,6.74
2022-10-17T02:24:42.821Z,6.68
2022-10-17T02:26:06.962Z,6.54
2022-10-17T02:29:03.088Z,6.61
2022-10-17T02:30:19.417Z,6.52
2022-10-17T02:31:41.440Z,6.52
2022-10-17T02:34:23.546Z,6.67
2022-10-17T02:37:15.463Z,6.65
2022-10-17T02:38:32.330Z,6.56
2022-10-17T02:40:58.816Z,6.73
2022-10-17T02:43:28.286Z,6.71
2022-10-17T02:45:57.353Z,6.74
2022-10-17T02:47:22.217Z,6.65
2022-10-17T02:50:00.739Z,6.89
2022-10-17T02:52:36.023Z,6.88
2022-10-17T02:55:15.862Z,6.80
2022-10-17T02:56:29.575Z,6.67
2022-10-17T02:57:42.945Z,6.65
2022-10-17T02:58:55.790Z,6.65
2022-10-17T03:00:08.400Z,6.64
2022-10-17T03:01:19.017Z,6.60
2022-10-17T03:02:28.277Z,6.59
2022-10-17T03:03:37.452Z,6.56
2022-10-17T03:04:47.976Z,6.55
2022-10-17T03:07:14.817Z,6.65
2022-10-17T03:09:39.785Z,6.67
2022-10-17T03:12:05.149Z,6.67
2022-10-17T03:14:31.364Z,6.51
2022-10-17T03:15:40.997Z,6.41
2022-10-17T03:16:51.293Z,6.41
2022-10-17T03:18:01.607Z,6.42
2022-10-17T03:20:26.885Z,6.44
2022-10-17T03:21:38.608Z,6.24
2022-10-17T03:22:47.913Z,6.29
2022-10-17T03:25:11.523Z,6.42
2022-10-17T03:27:35.721Z,6.50
2022-10-17T03:28:46.862Z,6.43
2022-10-17T03:29:57.422Z,6.48
2022-10-17T03:32:49.279Z,6.69
2022-10-17T03:35:14.886Z,6.63
2022-10-17T03:36:25.915Z,6.54
2022-10-17T03:37:38.950Z,6.56
2022-10-17T03:40:03.647Z,6.74
2022-10-17T03:42:29.682Z,6.73
2022-10-17T03:43:40.342Z,6.57
2022-10-17T03:46:04.650Z,6.45
2022-10-17T03:48:30.768Z,6.44
2022-10-17T03:51:01.366Z,6.48
2022-10-17T03:53:29.508Z,6.48
2022-10-17T03:54:39.906Z,6.42
2022-10-17T03:57:06.718Z,6.56
2022-10-17T03:58:15.063Z,6.50
2022-10-17T04:01:05.147Z,6.64
2022-10-17T04:02:14.861Z,6.56
2022-10-17T04:03:24.098Z,6.56
2022-10-17T04:04:45.355Z,6.59
2022-10-17T04:07:15.315Z,6.67
2022-10-17T04:09:46.648Z,6.70
2022-10-17T04:12:24.268Z,6.74
2022-10-17T04:13:34.013Z,6.62
2022-10-17T04:16:01.429Z,6.75
2022-10-17T04:18:28.263Z,6.80
2022-10-17T04:21:13.583Z,6.86
2022-10-17T04:23:44.860Z,6.86
2022-10-17T04:26:11.506Z,6.85
2022-10-17T04:31:07.347Z,6.85
2022-10-17T04:33:53.767Z,6.86
2022-10-17T04:36:38.516Z,6.92
2022-10-17T04:37:47.266Z,6.92
2022-10-17T04:40:18.350Z,7.42
2022-10-17T04:41:30.331Z,7.46
2022-10-17T04:44:03.242Z,8.12
2022-10-17T04:45:17.353Z,8.27
2022-10-17T04:47:41.816Z,9.02
2022-10-17T04:48:50.622Z,9.16
2022-10-17T04:49:59.790Z,9.41
2022-10-17T04:52:28.892Z,10.17
2022-10-17T04:54:55.939Z,10.90
2022-10-17T04:57:30.014Z,11.57
2022-10-17T04:58:46.373Z,11.75
2022-10-17T04:59:56.850Z,12.06
2022-10-17T05:02:32.736Z,13.01
2022-10-17T05:03:43.976Z,13.30
2022-10-17T05:06:21.301Z,14.33
2022-10-17T05:08:48.169Z,15.18
2022-10-17T05:09:59.322Z,15.34
2022-10-17T05:12:38.552Z,16.06
2022-10-17T05:15:12.008Z,16.23
2022-10-17T05:17:37.202Z,16.15
2022-10-17T05:20:09.319Z,15.81
2022-10-17T05:21:19.659Z,15.68
2022-10-17T05:22:29.545Z,15.58
2022-10-17T05:25:13.273Z,15.76
2022-10-17T05:27:39.620Z,15.94
2022-10-17T05:28:48.594Z,15.93
2022-10-17T05:31:13.124Z,16.31
2022-10-17T05:32:23.036Z,16.33
2022-10-17T05:34:47.640Z,16.62
2022-10-17T05:37:12.894Z,16.59
2022-10-17T05:39:39.236Z,16.37
2022-10-17T05:40:49.111Z,16.13
2022-10-17T05:43:19.841Z,15.96
2022-10-17T05:44:28.906Z,15.73
2022-10-17T05:46:54.301Z,15.60
2022-10-17T05:49:32.674Z,15.48
2022-10-17T05:51:56.714Z,15.42
2022-10-17T05:54:22.281Z,15.33
2022-10-17T05:55:32.773Z,15.15
2022-10-17T05:56:41.799Z,15.04
2022-10-17T05:58:01.631Z,14.97
2022-10-17T05:59:14.340Z,14.91
2022-10-17T06:00:34.161Z,14.82
2022-10-17T06:01:43.378Z,14.65
2022-10-17T06:04:08.549Z,14.36
2022-10-17T06:06:32.397Z,13.90
2022-10-17T06:07:43.306Z,13.61
2022-10-17T06:08:54.062Z,13.43
2022-10-17T06:10:07.891Z,13.24
2022-10-17T06:12:32.877Z,12.98
2022-10-17T06:14:57.517Z,12.65
2022-10-17T06:17:24.324Z,12.26
2022-10-17T06:20:08.441Z,11.90
2022-10-17T06:22:35.648Z,11.71
2022-10-17T06:25:02.188Z,11.60
2022-10-17T06:27:26.503Z,11.55
2022-10-17T06:29:52.944Z,11.52
2022-10-17T06:32:21.887Z,11.58
2022-10-17T06:34:47.240Z,11.68
2022-10-17T06:35:57.263Z,11.63
2022-10-17T06:38:21.997Z,11.85
2022-10-17T06:40:51.283Z,11.96
2022-10-17T06:42:02.555Z,11.85
2022-10-17T06:45:19.851Z,12.01
2022-10-17T06:48:32.263Z,12.07
2022-10-17T06:50:25.989Z,11.98
2022-10-17T06:51:55.855Z,12.01
2022-10-17T06:53:06.981Z,12.05
2022-10-17T06:56:37.127Z,12.20
2022-10-17T06:59:19.651Z,12.22
2022-10-17T07:02:01.441Z,12.31
2022-10-17T07:04:26.931Z,12.40
2022-10-17T07:06:51.678Z,12.42
2022-10-17T07:09:20.949Z,12.42
2022-10-17T07:11:47.474Z,12.41
2022-10-17T07:14:14.081Z,12.44
2022-10-17T07:16:37.826Z,12.48
2022-10-17T07:17:58.449Z,12.41
2022-10-17T07:20:24.553Z,12.53
2022-10-17T07:22:48.938Z,12.53
2022-10-17T07:25:24.793Z,12.41
2022-10-17T07:27:52.898Z,12.38
2022-10-17T07:30:21.377Z,12.41
2022-10-17T07:32:48.283Z,12.52
2022-10-17T07:34:00.149Z,12.42
2022-10-17T07:36:33.286Z,12.60
2022-10-17T07:38:01.228Z,12.55
2022-10-17T07:39:11.165Z,12.59
2022-10-17T07:40:20.795Z,12.65
2022-10-17T07:42:45.186Z,12.83
2022-10-17T07:45:11.621Z,12.90
2022-10-17T07:47:38.385Z,12.95
2022-10-17T07:50:05.414Z,13.00
2022-10-17T07:52:31.336Z,13.07
2022-10-17T07:54:58.702Z,13.04
2022-10-17T07:57:24.340Z,13.08
2022-10-17T07:59:58.226Z,13.11
2022-10-17T08:01:14.855Z,13.03
2022-10-17T08:03:43.170Z,13.19
2022-10-17T08:06:08.130Z,13.20
2022-10-17T08:08:32.191Z,13.18
2022-10-17T08:11:00.089Z,13.24
2022-10-17T08:12:08.982Z,13.13
2022-10-17T08:14:33.952Z,13.28
2022-10-17T08:16:57.648Z,13.28
2022-10-17T08:19:22.800Z,13.34
2022-10-17T08:21:46.591Z,13.44
2022-10-17T08:24:13.957Z,13.54
2022-10-17T08:26:42.341Z,13.62
2022-10-17T08:29:05.321Z,13.68
2022-10-17T08:31:31.709Z,13.74
2022-10-17T08:34:05.590Z,13.77
2022-10-17T08:36:30.457Z,13.82
2022-10-17T08:38:56.502Z,13.84
2022-10-17T08:43:01.862Z,13.89
2022-10-17T09:21:08.730Z,14.50
2022-10-17T09:25:14.181Z,14.61
2022-10-17T09:26:25.548Z,14.46
2022-10-17T09:29:00.137Z,14.58
2022-10-17T09:31:38.660Z,14.60
2022-10-17T09:34:05.266Z,14.63
2022-10-17T09:36:36.722Z,14.63
2022-10-17T09:37:47.921Z,14.54
2022-10-17T09:41:54.898Z,14.71
2022-10-17T09:44:35.894Z,14.78
2022-10-17T09:47:45.240Z,14.80
2022-10-17T09:50:31.798Z,14.85
2022-10-17T09:52:59.155Z,14.93
2022-10-17T09:55:47.322Z,14.95
2022-10-17T10:00:05.934Z,15.03
2022-10-17T10:03:20.766Z,15.06
2022-10-17T10:06:08.136Z,15.02
2022-10-17T10:08:37.262Z,14.93
2022-10-17T10:11:13.521Z,14.96
2022-10-17T10:13:38.541Z,15.04
2022-10-17T10:17:47.647Z,15.11
2022-10-17T10:21:47.199Z,15.03
2022-10-17T10:24:43.309Z,15.04
2022-10-17T10:27:15.140Z,15.07
2022-10-17T10:29:52.171Z,15.08
2022-10-17T10:31:04.946Z,14.95
2022-10-17T10:33:49.421Z,15.09
2022-10-17T10:36:25.739Z,15.09
2022-10-17T10:37:41.378Z,15.03
2022-10-17T10:38:59.206Z,15.03
2022-10-17T10:41:51.074Z,15.22
2022-10-17T10:43:05.095Z,15.13
2022-10-17T10:45:49.240Z,15.32
2022-10-17T10:48:34.282Z,15.36
2022-10-17T10:49:47.652Z,15.29
2022-10-17T10:51:05.909Z,15.31
2022-10-17T10:56:59.983Z,15.53
2022-10-17T11:00:17.136Z,15.45
2022-10-17T11:03:22.955Z,15.58
2022-10-17T11:07:29.743Z,15.67
2022-10-17T11:10:17.501Z,15.68
2022-10-17T11:13:08.415Z,15.72
2022-10-17T11:15:55.422Z,15.75
2022-10-17T11:20:10.950Z,15.76
2022-10-17T11:22:47.625Z,15.72
2022-10-17T11:25:34.471Z,15.70
2022-10-17T11:28:17.492Z,15.79
2022-10-17T11:30:51.752Z,15.79
2022-10-17T11:33:31.706Z,15.84
2022-10-17T11:34:51.000Z,15.75
2022-10-17T11:36:04.654Z,15.74
2022-10-17T11:38:42.425Z,15.79
2022-10-17T11:41:36.217Z,15.85
2022-10-17T11:44:37.656Z,15.91
2022-10-17T11:47:30.228Z,15.85
2022-10-17T11:52:11.107Z,15.74
2022-10-17T11:54:44.646Z,15.89
2022-10-17T11:57:35.438Z,15.92
2022-10-17T12:00:39.192Z,15.97
2022-10-17T12:05:05.206Z,15.90
2022-10-17T12:08:17.705Z,15.88
2022-10-17T12:11:10.969Z,15.85
2022-10-17T12:15:46.536Z,16.01
2022-10-17T12:17:01.748Z,15.94
2022-10-17T12:19:35.342Z,16.08
2022-10-17T12:22:22.389Z,16.11
2022-10-17T12:24:59.628Z,16.11
2022-10-17T12:26:10.168Z,16.01
2022-10-17T12:28:57.092Z,16.13
2022-10-17T12:31:34.054Z,16.13
2022-10-17T12:34:17.048Z,16.16
2022-10-17T12:35:28.677Z,16.06
2022-10-17T12:38:03.301Z,16.19
2022-10-17T12:40:39.696Z,16.19
2022-10-17T12:43:20.152Z,16.15
2022-10-17T12:45:52.193Z,16.23
2022-10-17T12:47:11.277Z,16.15
2022-10-17T12:50:00.748Z,16.27
2022-10-17T12:52:34.984Z,16.26
2022-10-17T12:55:26.138Z,16.26
2022-10-17T12:58:02.958Z,16.22
2022-10-17T13:01:18.767Z,16.23
2022-10-17T13:03:39.038Z,16.23
2022-10-17T13:06:07.283Z,16.18
2022-10-17T13:07:20.200Z,16.10
2022-10-17T13:09:50.698Z,16.23
2022-10-17T13:11:01.770Z,16.14
2022-10-17T13:13:38.583Z,16.29
2022-10-17T13:16:08.088Z,16.30
2022-10-17T13:18:42.699Z,16.30
2022-10-17T13:22:30.515Z,16.27
2022-10-17T13:23:40.962Z,16.16
2022-10-17T13:26:15.019Z,16.29
2022-10-17T13:29:04.184Z,16.26
2022-10-17T13:31:44.413Z,16.30
2022-10-17T13:34:21.467Z,16.30
2022-10-17T13:38:12.579Z,16.32
2022-10-17T13:40:50.036Z,16.33
2022-10-17T13:41:57.248Z,16.23
2022-10-17T13:43:15.472Z,16.26
2022-10-17T13:44:27.568Z,16.23
2022-10-17T13:45:38.051Z,16.25
2022-10-17T13:48:11.296Z,16.39
2022-10-17T13:50:51.266Z,16.40
2022-10-17T13:54:55.997Z,16.37
2022-10-17T13:57:30.185Z,16.35
2022-10-17T14:00:02.967Z,16.35
2022-10-17T14:01:15.132Z,16.27
2022-10-17T14:03:48.623Z,16.38
2022-10-17T14:06:27.822Z,16.38
2022-10-17T14:08:09.901Z,16.28
2022-10-17T14:10:29.272Z,16.38
2022-10-17T14:13:00.662Z,16.38
2022-10-17T14:15:46.789Z,16.31
2022-10-17T14:16:57.947Z,16.19
2022-10-17T14:18:09.412Z,16.18
2022-10-17T14:23:41.102Z,16.22
2022-10-17T14:26:20.044Z,16.19
2022-10-17T14:27:37.829Z,16.05
2022-10-17T14:31:35.651Z,16.09
2022-10-17T14:32:45.964Z,15.95
2022-10-17T14:35:37.325Z,16.08
2022-10-17T14:36:34.681Z,15.93
2022-10-17T14:39:04.281Z,16.01
2022-10-17T14:40:23.659Z,15.87
2022-10-17T14:41:42.728Z,15.82
2022-10-17T14:42:51.478Z,15.82
2022-10-17T14:45:26.623Z,15.89
2022-10-17T14:49:23.241Z,15.83
2022-10-17T14:50:32.686Z,15.74
2022-10-17T14:52:07.500Z,15.73
2022-10-17T14:53:20.560Z,15.71
2022-10-17T14:54:29.708Z,15.72
2022-10-17T14:55:40.753Z,15.69
2022-10-17T14:56:52.781Z,15.69
2022-10-17T14:58:03.194Z,15.70
2022-10-17T15:00:31.886Z,15.75
2022-10-17T15:01:45.367Z,15.61
2022-10-17T15:02:56.429Z,15.55
2022-10-17T15:13:45.440Z,15.46
2022-10-17T15:17:34.029Z,15.54
2022-10-17T15:19:58.884Z,15.50
2022-10-17T15:21:26.186Z,15.42
2022-10-17T15:22:27.094Z,15.44
2022-10-17T15:23:36.038Z,15.45
2022-10-17T15:24:45.998Z,15.45
2022-10-17T15:28:35.493Z,15.52
2022-10-17T15:31:05.210Z,15.47
2022-10-17T15:32:14.696Z,15.33
2022-10-17T15:34:38.583Z,15.48
2022-10-17T15:37:05.048Z,15.49
2022-10-17T15:39:33.381Z,15.52
2022-10-17T15:42:16.598Z,15.52
2022-10-17T15:44:45.187Z,15.47
2022-10-17T15:47:12.701Z,15.38
2022-10-17T15:49:41.427Z,15.27
2022-10-17T15:52:08.518Z,15.20
2022-10-17T15:54:32.631Z,15.18
2022-10-17T15:56:58.458Z,15.18
2022-10-17T16:00:51.987Z,15.10
2022-10-17T16:03:35.940Z,15.01
2022-10-17T16:04:45.280Z,14.88
2022-10-17T16:07:10.213Z,14.89
2022-10-17T16:09:38.874Z,14.83
2022-10-17T16:12:06.228Z,14.82
2022-10-17T16:14:34.036Z,14.86
2022-10-17T16:15:43.204Z,14.77
2022-10-17T16:16:53.590Z,14.78
2022-10-17T16:18:05.909Z,14.77
2022-10-17T16:19:13.699Z,14.74
2022-10-17T16:20:24.379Z,14.70
2022-10-17T16:21:36.875Z,14.65
2022-10-17T16:22:46.785Z,14.66
2022-10-17T16:23:56.379Z,14.62
2022-10-17T16:25:11.103Z,14.53
2022-10-17T16:26:21.312Z,14.54
2022-10-17T16:28:46.358Z,14.57
2022-10-17T16:29:55.244Z,14.47
2022-10-17T16:32:22.104Z,14.58
2022-10-17T16:34:47.114Z,14.56
2022-10-17T16:37:10.710Z,14.63
2022-10-17T16:38:20.052Z,14.48
2022-10-17T16:40:44.973Z,14.70
2022-10-17T16:43:15.366Z,14.59
2022-10-17T16:44:23.993Z,14.51
2022-10-17T16:45:32.935Z,14.46
2022-10-17T16:46:42.082Z,14.48
2022-10-17T16:47:53.734Z,14.51
2022-10-17T16:49:07.426Z,14.42
2022-10-17T16:51:34.277Z,14.47
2022-10-17T16:52:43.295Z,14.45
2022-10-17T16:55:11.792Z,14.60
2022-10-17T16:57:40.936Z,14.62
2022-10-17T17:00:09.751Z,14.58
2022-10-17T17:02:38.045Z,14.57
2022-10-17T17:03:48.728Z,14.50
2022-10-17T17:06:16.207Z,14.57
2022-10-17T17:08:45.137Z,14.55
2022-10-17T17:11:12.626Z,14.57
2022-10-17T17:12:21.792Z,14.44
2022-10-17T17:13:31.515Z,14.46
2022-10-17T17:17:30.610Z,14.56
2022-10-17T17:19:51.400Z,14.56
2022-10-17T17:22:17.037Z,14.46
2022-10-17T17:24:40.745Z,14.41
2022-10-17T17:27:08.802Z,14.38
2022-10-17T17:29:33.056Z,14.42
2022-10-17T17:31:58.985Z,14.28
2022-10-17T17:34:24.238Z,14.25
2022-10-17T17:36:49.541Z,14.36
2022-10-17T17:39:15.363Z,14.21
2022-10-17T17:41:40.556Z,14.19
2022-10-17T17:44:11.192Z,14.26
2022-10-17T17:46:34.425Z,14.11
2022-10-17T17:48:59.143Z,14.22
2022-10-17T17:51:29.447Z,14.27
2022-10-17T17:53:57.895Z,14.22
2022-10-17T17:56:25.612Z,14.27
2022-10-17T17:58:55.581Z,14.18
2022-10-17T18:01:23.209Z,14.06
2022-10-17T18:02:31.941Z,13.97
2022-10-17T18:06:22.874Z,14.16
2022-10-17T18:08:53.870Z,14.19
2022-10-17T18:11:22.082Z,14.21
2022-10-17T18:13:59.047Z,13.96
2022-10-17T18:16:28.886Z,14.08
2022-10-17T18:18:55.849Z,14.03
2022-10-17T18:21:22.808Z,14.03
2022-10-17T18:23:53.222Z,14.02
2022-10-17T18:26:17.835Z,13.95
2022-10-17T18:28:42.998Z,13.90
2022-10-17T18:31:26.102Z,13.89
2022-10-17T18:33:57.618Z,13.94
2022-10-17T18:36:25.787Z,14.00
2022-10-17T18:38:50.283Z,13.97
2022-10-17T18:41:17.326Z,13.92
2022-10-17T18:43:44.023Z,13.83
2022-10-17T18:47:26.549Z,13.81
2022-10-17T18:49:50.177Z,13.83
2022-10-17T18:52:21.968Z,13.79
2022-10-17T18:54:55.731Z,13.79
2022-10-17T18:57:23.836Z,13.75
2022-10-17T18:59:46.174Z,13.71
2022-10-17T19:02:12.629Z,13.54
2022-10-17T19:04:36.878Z,13.73
2022-10-17T19:07:02.793Z,13.73
2022-10-17T19:09:28.889Z,13.79
2022-10-17T19:11:52.438Z,13.74
2022-10-17T19:13:02.405Z,13.64
2022-10-17T19:16:59.849Z,13.63
2022-10-17T19:19:26.573Z,13.57
2022-10-17T19:21:52.402Z,13.51
2022-10-17T19:24:19.860Z,13.52
2022-10-17T19:30:19.500Z,13.57
2022-10-17T19:32:49.234Z,13.57
2022-10-17T19:35:15.033Z,13.55
2022-10-17T19:37:43.158Z,13.54
2022-10-17T19:38:56.410Z,13.47
2022-10-17T19:41:23.045Z,13.60
2022-10-17T19:43:51.014Z,13.59
2022-10-17T19:46:18.972Z,13.44
2022-10-17T19:48:45.514Z,13.42
2022-10-17T19:49:54.700Z,13.28
2022-10-17T19:52:21.343Z,13.44
2022-10-17T19:53:30.055Z,13.38
2022-10-17T19:54:40.499Z,13.20
2022-10-17T19:57:08.061Z,13.34
2022-10-17T19:59:29.920Z,13.39
2022-10-17T20:00:38.976Z,13.31
2022-10-17T20:01:50.388Z,13.18
2022-10-17T20:03:01.472Z,13.18
2022-10-17T20:05:28.273Z,13.34
2022-10-17T20:06:39.592Z,13.26
2022-10-17T20:09:06.278Z,13.29
2022-10-17T20:10:18.865Z,13.15
2022-10-17T20:12:45.399Z,13.26
2022-10-17T20:13:56.440Z,13.09
2022-10-17T20:15:06.203Z,13.14
2022-10-17T20:17:35.557Z,13.27
2022-10-17T20:20:02.472Z,13.25
2022-10-17T20:22:32.680Z,13.29
2022-10-17T20:24:58.108Z,13.30
2022-10-17T20:27:27.673Z,13.34
2022-10-17T20:28:36.429Z,13.20
2022-10-17T20:31:01.136Z,13.24
2022-10-17T20:33:31.756Z,13.18
2022-10-17T20:35:53.297Z,13.15
2022-10-17T20:38:17.874Z,13.15
2022-10-17T20:40:42.455Z,13.10
2022-10-17T20:43:10.459Z,13.09
2022-10-17T20:45:50.983Z,13.03
2022-10-17T20:48:07.061Z,13.11
2022-10-17T20:50:37.729Z,13.11
2022-10-17T20:53:31.503Z,13.07
2022-10-17T20:55:31.015Z,13.12
2022-10-17T20:57:57.180Z,13.17
2022-10-17T21:00:25.407Z,13.13
2022-10-17T21:02:52.561Z,13.12
2022-10-17T21:05:17.086Z,13.19
2022-10-17T21:07:41.194Z,13.23
2022-10-17T21:10:34.302Z,13.28
2022-10-17T21:12:54.387Z,13.26
2022-10-17T21:14:05.442Z,13.09
2022-10-17T21:15:14.254Z,13.12
2022-10-17T21:17:39.924Z,13.26
2022-10-17T21:20:05.039Z,13.18
2022-10-17T21:21:20.031Z,13.13
2022-10-17T21:22:28.980Z,13.07
2022-10-17T21:24:55.161Z,13.00
2022-10-17T21:26:06.459Z,12.71
2022-10-17T21:27:17.750Z,12.74
2022-10-17T21:28:28.419Z,12.67
2022-10-17T21:30:54.162Z,12.91
2022-10-17T21:33:19.989Z,12.86
2022-10-17T21:35:43.835Z,12.88
2022-10-17T21:36:53.684Z,12.80
2022-10-17T21:39:17.783Z,12.92
2022-10-17T21:41:43.965Z,12.91
2022-10-17T21:42:52.739Z,12.80
2022-10-17T21:44:05.023Z,12.71
2022-10-17T21:46:41.707Z,12.76
2022-10-17T21:48:11.683Z,12.69
2022-10-17T21:49:02.068Z,12.72
2022-10-17T21:50:10.723Z,12.72
2022-10-17T21:51:23.779Z,12.72
2022-10-17T21:53:48.790Z,12.90
2022-10-17T21:56:17.439Z,12.86
2022-10-17T21:57:27.106Z,12.70
2022-10-17T21:58:36.899Z,12.67
2022-10-17T22:01:08.961Z,12.68
2022-10-17T22:03:36.237Z,12.65
2022-10-17T22:04:45.453Z,12.45
2022-10-17T22:06:06.829Z,12.56
2022-10-17T22:07:09.200Z,12.56
2022-10-17T22:08:17.929Z,12.55
2022-10-17T22:09:29.086Z,12.48
2022-10-17T22:11:56.451Z,12.69
2022-10-17T22:13:06.225Z,12.44
2022-10-17T22:14:19.784Z,12.52
2022-10-17T22:15:29.356Z,12.53
2022-10-17T22:17:56.819Z,12.71
2022-10-17T22:19:07.813Z,12.61
2022-10-17T22:21:36.027Z,12.75
2022-10-17T22:22:52.656Z,12.61
2022-10-17T22:24:04.596Z,12.60
2022-10-17T22:25:13.399Z,12.57
2022-10-17T22:26:22.934Z,12.65
2022-10-17T22:28:49.314Z,12.74
2022-10-17T22:31:14.000Z,12.71
2022-10-17T22:33:40.287Z,12.73
2022-10-17T22:36:05.811Z,12.64
2022-10-17T22:38:29.781Z,12.71
2022-10-17T22:40:55.937Z,12.74
2022-10-17T22:43:20.572Z,12.82
2022-10-17T22:45:53.816Z,12.91
2022-10-17T22:48:20.901Z,12.93
2022-10-17T22:50:46.412Z,12.97
2022-10-17T22:53:11.751Z,12.91
2022-10-17T22:55:36.680Z,12.93
2022-10-17T22:58:01.891Z,13.00
2022-10-17T23:02:55.272Z,12.88
2022-10-17T23:05:20.462Z,12.75
2022-10-17T23:07:44.704Z,12.75
2022-10-17T23:10:10.762Z,12.61
2022-10-17T23:12:35.138Z,12.53
2022-10-17T23:14:59.721Z,12.56
2022-10-17T23:16:15.374Z,12.27
2022-10-17T23:18:40.802Z,12.49
2022-10-17T23:20:00.275Z,12.40
2022-10-17T23:22:25.184Z,12.50
2022-10-17T23:25:15.372Z,12.57
2022-10-17T23:27:58.524Z,12.62
2022-10-17T23:30:23.807Z,12.61
2022-10-17T23:32:47.531Z,12.50
2022-10-17T23:35:11.969Z,12.38
2022-10-17T23:37:40.099Z,12.34
2022-10-17T23:40:06.094Z,12.32
2022-10-17T23:42:30.797Z,12.22
2022-10-17T23:44:56.951Z,12.19
2022-10-17T23:47:23.828Z,12.25
2022-10-17T23:48:33.852Z,12.19
2022-10-17T23:49:42.568Z,12.23
2022-10-17T23:52:07.750Z,12.29
2022-10-17T23:53:16.733Z,12.19
2022-10-17T23:55:41.459Z,12.22
2022-10-17T23:58:06.704Z,12.24
2022-10-17T23:59:16.285Z,12.03
